sensor_id;sensor_type;location;lat;lon;timestamp;pressure;altitude;pressure_sealevel;temperature;humidity
10852;BME280;5479;52.046;6.314;2023-03-04T00:01:21;102504.06;;;6.00;100.00
10852;BME280;5479;52.046;6.314;2023-03-04T00:03:49;102509.22;;;6.10;100.00
10852;BME280;5479;52.046;6.314;2023-03-04T00:06:18;102512.72;;;6.08;100.00
10852;BME280;5479;52.046;6.314;2023-03-04T00:08:45;102516.59;;;5.80;100.00
10852;BME280;5479;52.046;6.314;2023-03-04T00:11:14;102515.56;;;5.93;100.00
10852;BME280;5479;52.046;6.314;2023-03-04T00:13:43;102521.78;;;5.83;100.00
10852;BME280;5479;52.046;6.314;2023-03-04T00:16:11;102512.13;;;5.88;100.00
10852;BME280;5479;52.046;6.314;2023-03-04T00:18:39;102509.41;;;5.96;100.00
10852;BME280;5479;52.046;6.314;2023-03-04T00:21:07;102513.72;;;6.01;100.00
10852;BME280;5479;52.046;6.314;2023-03-04T00:23:35;102518.09;;;5.99;100.00
10852;BME280;5479;52.046;6.314;2023-03-04T00:26:03;102510.19;;;5.99;100.00
10852;BME280;5479;52.046;6.314;2023-03-04T00:28:31;102518.13;;;5.98;100.00
10852;BME280;5479;52.046;6.314;2023-03-04T00:31:00;102522.66;;;5.88;100.00
10852;BME280;5479;52.046;6.314;2023-03-04T00:33:28;102507.69;;;5.93;100.00
10852;BME280;5479;52.046;6.314;2023-03-04T00:35:56;102512.06;;;5.91;100.00
10852;BME280;5479;52.046;6.314;2023-03-04T00:38:24;102504.19;;;5.91;100.00
10852;BME280;5479;52.046;6.314;2023-03-04T00:40:53;102505.13;;;5.87;100.00
10852;BME280;5479;52.046;6.314;2023-03-04T00:43:21;102498.88;;;5.94;100.00
10852;BME280;5479;52.046;6.314;2023-03-04T00:45:49;102500.72;;;5.89;100.00
10852;BME280;5479;52.046;6.314;2023-03-04T00:48:18;102491.94;;;5.89;100.00
10852;BME280;5479;52.046;6.314;2023-03-04T00:50:46;102497.16;;;5.93;100.00
10852;BME280;5479;52.046;6.314;2023-03-04T00:53:14;102496.41;;;5.85;100.00
10852;BME280;5479;52.046;6.314;2023-03-04T00:55:42;102498.88;;;5.94;100.00
10852;BME280;5479;52.046;6.314;2023-03-04T00:58:10;102494.59;;;5.86;100.00
10852;BME280;5479;52.046;6.314;2023-03-04T01:00:38;102495.66;;;5.71;100.00
10852;BME280;5479;52.046;6.314;2023-03-04T01:03:05;102502.69;;;5.69;100.00
10852;BME280;5479;52.046;6.314;2023-03-04T01:05:35;102499.91;;;5.81;100.00
10852;BME280;5479;52.046;6.314;2023-03-04T01:08:03;102506.91;;;5.82;100.00
10852;BME280;5479;52.046;6.314;2023-03-04T01:10:32;102506.88;;;5.84;100.00
10852;BME280;5479;52.046;6.314;2023-03-04T01:12:59;102508.66;;;5.82;100.00
10852;BME280;5479;52.046;6.314;2023-03-04T01:15:27;102509.63;;;5.75;100.00
10852;BME280;5479;52.046;6.314;2023-03-04T01:17:55;102505.16;;;5.81;100.00
10852;BME280;5479;52.046;6.314;2023-03-04T01:20:24;102507.75;;;5.86;100.00
10852;BME280;5479;52.046;6.314;2023-03-04T01:22:53;102496.41;;;5.82;100.00
10852;BME280;5479;52.046;6.314;2023-03-04T01:25:21;102499.88;;;5.84;100.00
10852;BME280;5479;52.046;6.314;2023-03-04T01:27:49;102496.41;;;5.85;100.00
10852;BME280;5479;52.046;6.314;2023-03-04T01:30:17;102490.25;;;5.85;100.00
10852;BME280;5479;52.046;6.314;2023-03-04T01:32:45;102490.28;;;5.80;100.00
10852;BME280;5479;52.046;6.314;2023-03-04T01:35:13;102496.44;;;5.79;100.00
10852;BME280;5479;52.046;6.314;2023-03-04T01:37:41;102487.81;;;5.68;100.00
10852;BME280;5479;52.046;6.314;2023-03-04T01:40:12;102483.31;;;5.78;100.00
10852;BME280;5479;52.046;6.314;2023-03-04T01:42:40;102478.88;;;5.81;100.00
10852;BME280;5479;52.046;6.314;2023-03-04T01:45:11;102484.19;;;5.75;100.00
10852;BME280;5479;52.046;6.314;2023-03-04T01:47:43;102472.84;;;5.73;100.00
10852;BME280;5479;52.046;6.314;2023-03-04T01:50:18;102471.06;;;5.77;100.00
10852;BME280;5479;52.046;6.314;2023-03-04T01:52:47;102484.19;;;5.75;100.00
10852;BME280;5479;52.046;6.314;2023-03-04T01:55:19;102474.69;;;5.67;100.00
10852;BME280;5479;52.046;6.314;2023-03-04T01:57:49;102465.00;;;5.70;100.00
10852;BME280;5479;52.046;6.314;2023-03-04T02:00:25;102464.91;;;5.78;100.00
10852;BME280;5479;52.046;6.314;2023-03-04T02:02:56;102466.84;;;5.62;100.00
10852;BME280;5479;52.046;6.314;2023-03-04T02:05:25;102464.19;;;5.67;100.00
10852;BME280;5479;52.046;6.314;2023-03-04T02:07:55;102466.69;;;5.74;100.00
10852;BME280;5479;52.046;6.314;2023-03-04T02:10:26;102460.50;;;5.80;100.00
10852;BME280;5479;52.046;6.314;2023-03-04T02:12:54;102456.91;;;5.84;100.00
10852;BME280;5479;52.046;6.314;2023-03-04T02:15:23;102464.91;;;5.76;100.00
10852;BME280;5479;52.046;6.314;2023-03-04T02:17:51;102459.66;;;5.76;100.00
10852;BME280;5479;52.046;6.314;2023-03-04T02:20:27;102458.88;;;5.70;100.00
10852;BME280;5479;52.046;6.314;2023-03-04T02:23:03;102451.88;;;5.69;100.00
10852;BME280;5479;52.046;6.314;2023-03-04T02:25:40;102451.88;;;5.69;100.00
10852;BME280;5479;52.046;6.314;2023-03-04T02:28:11;102448.25;;;5.77;100.00
10852;BME280;5479;52.046;6.314;2023-03-04T02:30:39;102445.78;;;5.65;100.00
10852;BME280;5479;52.046;6.314;2023-03-04T02:33:14;102441.31;;;5.70;100.00
10852;BME280;5479;52.046;6.314;2023-03-04T02:35:44;102438.81;;;5.64;100.00
10852;BME280;5479;52.046;6.314;2023-03-04T02:38:12;102438.66;;;5.75;100.00
10852;BME280;5479;52.046;6.314;2023-03-04T02:40:42;102443.16;;;5.67;100.00
10852;BME280;5479;52.046;6.314;2023-03-04T02:43:13;102439.56;;;5.72;100.00
10852;BME280;5479;52.046;6.314;2023-03-04T02:45:43;102440.53;;;5.65;100.00
10852;BME280;5479;52.046;6.314;2023-03-04T02:48:12;102431.00;;;5.58;100.00
10852;BME280;5479;52.046;6.314;2023-03-04T02:50:42;102431.63;;;5.75;100.00
10852;BME280;5479;52.046;6.314;2023-03-04T02:53:12;102421.25;;;5.65;100.00
10852;BME280;5479;52.046;6.314;2023-03-04T02:55:40;102419.56;;;5.59;100.00
10852;BME280;5479;52.046;6.314;2023-03-04T02:58:09;102428.13;;;5.76;100.00
10852;BME280;5479;52.046;6.314;2023-03-04T03:00:39;102414.28;;;5.62;100.00
10852;BME280;5479;52.046;6.314;2023-03-04T03:03:07;102418.69;;;5.60;100.00
10852;BME280;5479;52.046;6.314;2023-03-04T03:05:36;102416.88;;;5.65;100.00
10852;BME280;5479;52.046;6.314;2023-03-04T03:08:04;102412.53;;;5.64;100.00
10852;BME280;5479;52.046;6.314;2023-03-04T03:10:33;102410.69;;;5.69;100.00
10852;BME280;5479;52.046;6.314;2023-03-04T03:13:01;102417.56;;;5.79;100.00
10852;BME280;5479;52.046;6.314;2023-03-04T03:15:29;102410.72;;;5.66;100.00
10852;BME280;5479;52.046;6.314;2023-03-04T03:17:58;102416.72;;;5.77;100.00
10852;BME280;5479;52.046;6.314;2023-03-04T03:20:26;102407.28;;;5.64;100.00
10852;BME280;5479;52.046;6.314;2023-03-04T03:22:54;102402.78;;;5.72;100.00
10852;BME280;5479;52.046;6.314;2023-03-04T03:25:22;102403.72;;;5.65;100.00
10852;BME280;5479;52.046;6.314;2023-03-04T03:27:50;102406.44;;;5.59;100.00
10852;BME280;5479;52.046;6.314;2023-03-04T03:30:18;102403.75;;;5.62;100.00
10852;BME280;5479;52.046;6.314;2023-03-04T03:32:46;102394.13;;;5.63;100.00
10852;BME280;5479;52.046;6.314;2023-03-04T03:35:15;102397.66;;;5.62;100.00
10852;BME280;5479;52.046;6.314;2023-03-04T03:37:43;102395.88;;;5.62;100.00
10852;BME280;5479;52.046;6.314;2023-03-04T03:40:12;102389.81;;;5.57;100.00
10852;BME280;5479;52.046;6.314;2023-03-04T03:42:40;102398.50;;;5.62;100.00
10852;BME280;5479;52.046;6.314;2023-03-04T03:45:09;102392.47;;;5.54;100.00
10852;BME280;5479;52.046;6.314;2023-03-04T03:47:38;102400.28;;;5.60;100.00
10852;BME280;5479;52.046;6.314;2023-03-04T03:50:06;102388.91;;;5.60;100.00
10852;BME280;5479;52.046;6.314;2023-03-04T03:52:36;102387.16;;;5.60;100.00
10852;BME280;5479;52.046;6.314;2023-03-04T03:55:04;102393.34;;;5.56;100.00
10852;BME280;5479;52.046;6.314;2023-03-04T03:57:32;102389.78;;;5.60;100.00
10852;BME280;5479;52.046;6.314;2023-03-04T04:00:00;102384.56;;;5.57;100.00
10852;BME280;5479;52.046;6.314;2023-03-04T04:02:28;102386.34;;;5.55;100.00
10852;BME280;5479;52.046;6.314;2023-03-04T04:04:56;102389.06;;;5.51;100.00
10852;BME280;5479;52.046;6.314;2023-03-04T04:07:24;102395.03;;;5.60;100.00
10852;BME280;5479;52.046;6.314;2023-03-04T04:09:53;102395.16;;;5.51;100.00
10852;BME280;5479;52.046;6.314;2023-03-04T04:12:22;102390.72;;;5.56;100.00
10852;BME280;5479;52.046;6.314;2023-03-04T04:14:50;102395.91;;;5.59;100.00
10852;BME280;5479;52.046;6.314;2023-03-04T04:17:18;102402.81;;;5.68;100.00
10852;BME280;5479;52.046;6.314;2023-03-04T04:19:46;102396.78;;;5.61;100.00
10852;BME280;5479;52.046;6.314;2023-03-04T04:22:16;102396.88;;;5.55;100.00
10852;BME280;5479;52.046;6.314;2023-03-04T04:24:45;102397.84;;;5.46;100.00
10852;BME280;5479;52.046;6.314;2023-03-04T04:27:14;102392.47;;;5.56;100.00
10852;BME280;5479;52.046;6.314;2023-03-04T04:29:42;102398.53;;;5.59;100.00
10852;BME280;5479;52.046;6.314;2023-03-04T04:32:10;102388.91;;;5.60;100.00
10852;BME280;5479;52.046;6.314;2023-03-04T04:34:38;102385.31;;;5.67;100.00
10852;BME280;5479;52.046;6.314;2023-03-04T04:37:06;102391.50;;;5.64;100.00
10852;BME280;5479;52.046;6.314;2023-03-04T04:39:35;102387.16;;;5.62;100.00
10852;BME280;5479;52.046;6.314;2023-03-04T04:42:03;102386.31;;;5.58;100.00
10852;BME280;5479;52.046;6.314;2023-03-04T04:44:32;102389.09;;;5.47;100.00
10852;BME280;5479;52.046;6.314;2023-03-04T04:47:00;102395.22;;;5.48;100.00
10852;BME280;5479;52.046;6.314;2023-03-04T04:49:28;102389.81;;;5.57;100.00
10852;BME280;5479;52.046;6.314;2023-03-04T04:51:56;102392.47;;;5.54;100.00
10852;BME280;5479;52.046;6.314;2023-03-04T04:54:24;102395.94;;;5.58;100.00
10852;BME280;5479;52.046;6.314;2023-03-04T04:56:52;102399.59;;;5.46;100.00
10852;BME280;5479;52.046;6.314;2023-03-04T04:59:20;102401.44;;;5.38;100.00
10852;BME280;5479;52.046;6.314;2023-03-04T05:01:50;102412.94;;;5.31;100.00
10852;BME280;5479;52.046;6.314;2023-03-04T05:04:19;102411.16;;;5.33;100.00
10852;BME280;5479;52.046;6.314;2023-03-04T05:06:47;102397.06;;;5.38;100.00
10852;BME280;5479;52.046;6.314;2023-03-04T05:09:15;102397.09;;;5.37;100.00
10852;BME280;5479;52.046;6.314;2023-03-04T05:11:43;102403.25;;;5.37;100.00
10852;BME280;5479;52.046;6.314;2023-03-04T05:14:11;102389.94;;;5.49;100.00
10852;BME280;5479;52.046;6.314;2023-03-04T05:16:39;102391.72;;;5.47;100.00
10852;BME280;5479;52.046;6.314;2023-03-04T05:19:08;102392.63;;;5.43;100.00
10852;BME280;5479;52.046;6.314;2023-03-04T05:21:36;102397.94;;;5.39;100.00
10852;BME280;5479;52.046;6.314;2023-03-04T05:24:04;102402.47;;;5.28;100.00
10852;BME280;5479;52.046;6.314;2023-03-04T05:26:32;102398.16;;;5.24;100.00
10852;BME280;5479;52.046;6.314;2023-03-04T05:29:01;102396.34;;;5.29;100.00
10852;BME280;5479;52.046;6.314;2023-03-04T05:31:28;102398.06;;;5.30;100.00
10852;BME280;5479;52.046;6.314;2023-03-04T05:33:56;102391.91;;;5.31;100.00
10852;BME280;5479;52.046;6.314;2023-03-04T05:36:26;102403.28;;;5.34;100.00
10852;BME280;5479;52.046;6.314;2023-03-04T05:38:53;102400.63;;;5.37;100.00
10852;BME280;5479;52.046;6.314;2023-03-04T05:41:21;102397.13;;;5.34;100.00
10852;BME280;5479;52.046;6.314;2023-03-04T05:43:49;102397.25;;;5.25;100.00
10852;BME280;5479;52.046;6.314;2023-03-04T05:46:17;102399.09;;;5.17;100.00
10852;BME280;5479;52.046;6.314;2023-03-04T05:48:51;102400.91;;;5.12;100.00
10852;BME280;5479;52.046;6.314;2023-03-04T05:51:20;102403.53;;;5.13;100.00
10852;BME280;5479;52.046;6.314;2023-03-04T05:53:50;102403.59;;;5.06;100.00
10852;BME280;5479;52.046;6.314;2023-03-04T05:56:19;102405.13;;;5.25;100.00
10852;BME280;5479;52.046;6.314;2023-03-04T05:58:47;102403.53;;;5.13;100.00
10852;BME280;5479;52.046;6.314;2023-03-04T06:01:15;102399.25;;;5.05;100.00
10852;BME280;5479;52.046;6.314;2023-03-04T06:03:44;102400.97;;;5.06;100.00
10852;BME280;5479;52.046;6.314;2023-03-04T06:06:14;102403.56;;;5.09;100.00
10852;BME280;5479;52.046;6.314;2023-03-04T06:08:41;102400.13;;;5.05;100.00
10852;BME280;5479;52.046;6.314;2023-03-04T06:11:11;102404.34;;;5.17;100.00
10852;BME280;5479;52.046;6.314;2023-03-04T06:13:39;102402.50;;;5.25;100.00
10852;BME280;5479;52.046;6.314;2023-03-04T06:16:08;102400.78;;;5.24;100.00
10852;BME280;5479;52.046;6.314;2023-03-04T06:18:36;102406.00;;;5.27;100.00
10852;BME280;5479;52.046;6.314;2023-03-04T06:21:04;102404.22;;;5.29;100.00
10852;BME280;5479;52.046;6.314;2023-03-04T06:23:32;102412.13;;;5.26;100.00
10852;BME280;5479;52.046;6.314;2023-03-04T06:26:01;102406.94;;;5.20;100.00
10852;BME280;5479;52.046;6.314;2023-03-04T06:28:31;102411.44;;;5.09;100.00
10852;BME280;5479;52.046;6.314;2023-03-04T06:30:58;102408.81;;;5.09;100.00
10852;BME280;5479;52.046;6.314;2023-03-04T06:33:26;102414.91;;;5.12;100.00
10852;BME280;5479;52.046;6.314;2023-03-04T06:35:55;102409.72;;;5.08;100.00
10852;BME280;5479;52.046;6.314;2023-03-04T06:38:24;102411.44;;;5.10;100.00
10852;BME280;5479;52.046;6.314;2023-03-04T06:40:52;102421.03;;;5.11;100.00
10852;BME280;5479;52.046;6.314;2023-03-04T06:43:21;102414.84;;;5.17;100.00
10852;BME280;5479;52.046;6.314;2023-03-04T06:45:50;102413.81;;;5.31;100.00
10852;BME280;5479;52.046;6.314;2023-03-04T06:48:18;102412.81;;;5.43;100.00
10852;BME280;5479;52.046;6.314;2023-03-04T06:50:46;102411.06;;;5.42;100.00
10852;BME280;5479;52.046;6.314;2023-03-04T06:53:14;102414.47;;;5.48;100.00
10852;BME280;5479;52.046;6.314;2023-03-04T06:55:42;102418.75;;;5.56;100.00
10852;BME280;5479;52.046;6.314;2023-03-04T06:58:10;102417.91;;;5.54;100.00
10852;BME280;5479;52.046;6.314;2023-03-04T07:00:37;102411.63;;;5.65;100.00
10852;BME280;5479;52.046;6.314;2023-03-04T07:03:08;102412.25;;;5.85;100.00
10852;BME280;5479;52.046;6.314;2023-03-04T07:05:36;102412.09;;;5.94;100.00
10852;BME280;5479;52.046;6.314;2023-03-04T07:08:04;102412.97;;;5.95;100.00
10852;BME280;5479;52.046;6.314;2023-03-04T07:10:34;102421.78;;;5.92;100.00
10852;BME280;5479;52.046;6.314;2023-03-04T07:13:02;102419.78;;;6.08;100.00
10852;BME280;5479;52.046;6.314;2023-03-04T07:15:30;102407.38;;;6.18;100.00
10852;BME280;5479;52.046;6.314;2023-03-04T07:17:58;102419.63;;;6.19;100.00
10852;BME280;5479;52.046;6.314;2023-03-04T07:20:27;102418.88;;;6.12;100.00
10852;BME280;5479;52.046;6.314;2023-03-04T07:22:55;102418.88;;;6.11;100.00
10852;BME280;5479;52.046;6.314;2023-03-04T07:25:23;102419.00;;;6.04;100.00
10852;BME280;5479;52.046;6.314;2023-03-04T07:27:51;102420.59;;;6.15;100.00
10852;BME280;5479;52.046;6.314;2023-03-04T07:30:19;102419.00;;;6.04;100.00
10852;BME280;5479;52.046;6.314;2023-03-04T07:32:47;102420.41;;;6.24;100.00
10852;BME280;5479;52.046;6.314;2023-03-04T07:35:15;102427.03;;;6.49;100.00
10852;BME280;5479;52.046;6.314;2023-03-04T07:37:44;102422.41;;;6.63;100.00
10852;BME280;5479;52.046;6.314;2023-03-04T07:40:12;102433.19;;;6.49;100.00
10852;BME280;5479;52.046;6.314;2023-03-04T07:42:41;102425.84;;;6.66;100.00
10852;BME280;5479;52.046;6.314;2023-03-04T07:45:10;102431.28;;;6.57;100.00
10852;BME280;5479;52.046;6.314;2023-03-04T07:47:38;102424.41;;;6.49;100.00
10852;BME280;5479;52.046;6.314;2023-03-04T07:50:08;102422.28;;;6.71;100.00
10852;BME280;5479;52.046;6.314;2023-03-04T07:52:37;102420.13;;;6.92;100.00
10852;BME280;5479;52.046;6.314;2023-03-04T07:55:08;102425.09;;;7.07;100.00
10852;BME280;5479;52.046;6.314;2023-03-04T07:57:37;102425.44;;;6.89;100.00
10852;BME280;5479;52.046;6.314;2023-03-04T08:00:07;102427.31;;;6.83;100.00
10852;BME280;5479;52.046;6.314;2023-03-04T08:02:35;102429.94;;;6.84;100.00
10852;BME280;5479;52.046;6.314;2023-03-04T08:05:04;102428.81;;;6.96;100.00
10852;BME280;5479;52.046;6.314;2023-03-04T08:07:32;102431.88;;;6.73;100.00
10852;BME280;5479;52.046;6.314;2023-03-04T08:10:00;102428.44;;;6.71;100.00
10852;BME280;5479;52.046;6.314;2023-03-04T08:12:29;102430.19;;;6.69;100.00
10852;BME280;5479;52.046;6.314;2023-03-04T08:14:58;102424.31;;;6.55;100.00
10852;BME280;5479;52.046;6.314;2023-03-04T08:17:26;102425.16;;;6.57;100.00
10852;BME280;5479;52.046;6.314;2023-03-04T08:19:55;102428.94;;;6.41;100.00
10852;BME280;5479;52.046;6.314;2023-03-04T08:22:23;102428.56;;;6.62;100.00
10852;BME280;5479;52.046;6.314;2023-03-04T08:24:51;102424.63;;;6.87;100.00
10852;BME280;5479;52.046;6.314;2023-03-04T08:27:19;102430.09;;;6.77;100.00
10852;BME280;5479;52.046;6.314;2023-03-04T08:29:49;102436.50;;;6.60;100.00
10852;BME280;5479;52.046;6.314;2023-03-04T08:32:17;102433.56;;;6.77;100.00
10852;BME280;5479;52.046;6.314;2023-03-04T08:34:44;102443.06;;;6.86;100.00
10852;BME280;5479;52.046;6.314;2023-03-04T08:37:12;102433.31;;;6.92;100.00
10852;BME280;5479;52.046;6.314;2023-03-04T08:39:40;102441.75;;;7.09;100.00
10852;BME280;5479;52.046;6.314;2023-03-04T08:42:08;102434.69;;;7.11;100.00
10852;BME280;5479;52.046;6.314;2023-03-04T08:44:36;102436.94;;;7.31;100.00
10852;BME280;5479;52.046;6.314;2023-03-04T08:47:05;102435.44;;;7.61;100.00
10852;BME280;5479;52.046;6.314;2023-03-04T08:49:35;102436.78;;;7.80;100.00
10852;BME280;5479;52.046;6.314;2023-03-04T08:52:04;102434.50;;;8.03;100.00
10852;BME280;5479;52.046;6.314;2023-03-04T08:54:32;102443.59;;;7.90;100.00
10852;BME280;5479;52.046;6.314;2023-03-04T08:57:00;102445.88;;;7.67;100.00
10852;BME280;5479;52.046;6.314;2023-03-04T08:59:28;102438.13;;;7.58;100.00
10852;BME280;5479;52.046;6.314;2023-03-04T09:01:56;102433.84;;;7.54;100.00
10852;BME280;5479;52.046;6.314;2023-03-04T09:04:25;102438.84;;;7.23;100.00
10852;BME280;5479;52.046;6.314;2023-03-04T09:06:53;102438.78;;;7.27;100.00
10852;BME280;5479;52.046;6.314;2023-03-04T09:09:21;102444.13;;;7.66;100.00
10852;BME280;5479;52.046;6.314;2023-03-04T09:11:49;102433.44;;;7.72;100.00
10852;BME280;5479;52.046;6.314;2023-03-04T09:14:18;102428.22;;;7.70;100.00
10852;BME280;5479;52.046;6.314;2023-03-04T09:16:46;102431.75;;;7.68;100.00
10852;BME280;5479;52.046;6.314;2023-03-04T09:19:14;102424.94;;;7.59;100.00
10852;BME280;5479;52.046;6.314;2023-03-04T09:21:44;102427.81;;;7.87;100.00
10852;BME280;5479;52.046;6.314;2023-03-04T09:24:11;102432.16;;;7.89;100.00
10852;BME280;5479;52.046;6.314;2023-03-04T09:26:39;102425.69;;;7.64;100.00
10852;BME280;5479;52.046;6.314;2023-03-04T09:29:09;102415.81;;;8.12;100.00
10852;BME280;5479;52.046;6.314;2023-03-04T09:31:36;102414.38;;;7.99;100.00
10852;BME280;5479;52.046;6.314;2023-03-04T09:34:04;102405.06;;;7.83;100.00
10852;BME280;5479;52.046;6.314;2023-03-04T09:36:32;102418.53;;;8.09;100.00
10852;BME280;5479;52.046;6.314;2023-03-04T09:39:02;102407.97;;;8.09;100.00
10852;BME280;5479;52.046;6.314;2023-03-04T09:41:36;102413.63;;;7.94;100.00
10852;BME280;5479;52.046;6.314;2023-03-04T09:44:13;102413.38;;;8.03;100.00
10852;BME280;5479;52.046;6.314;2023-03-04T09:46:43;102410.28;;;7.86;100.00
10852;BME280;5479;52.046;6.314;2023-03-04T09:49:12;102401.19;;;7.99;100.00
10852;BME280;5479;52.046;6.314;2023-03-04T09:51:46;102404.56;;;8.04;100.00
10852;BME280;5479;52.046;6.314;2023-03-04T09:54:29;102402.13;;;7.95;100.00
10852;BME280;5479;52.046;6.314;2023-03-04T09:57:12;102403.63;;;7.70;100.00
10852;BME280;5479;52.046;6.314;2023-03-04T09:59:49;102403.13;;;7.51;100.00
10852;BME280;5479;52.046;6.314;2023-03-04T10:02:26;102402.38;;;7.46;100.00
10852;BME280;5479;52.046;6.314;2023-03-04T10:04:58;102402.19;;;7.54;100.00
10852;BME280;5479;52.046;6.314;2023-03-04T10:07:33;102396.88;;;7.55;100.00
10852;BME280;5479;52.046;6.314;2023-03-04T10:10:09;102396.75;;;7.61;100.00
10852;BME280;5479;52.046;6.314;2023-03-04T10:12:41;102397.53;;;7.66;100.00
10852;BME280;5479;52.046;6.314;2023-03-04T10:15:18;102390.38;;;7.71;100.00
10852;BME280;5479;52.046;6.314;2023-03-04T10:17:54;102391.88;;;7.83;100.00
10852;BME280;5479;52.046;6.314;2023-03-04T10:20:31;102392.63;;;7.88;100.00
10852;BME280;5479;52.046;6.314;2023-03-04T10:23:09;102396.09;;;7.90;100.00
10852;BME280;5479;52.046;6.314;2023-03-04T10:25:42;102390.19;;;8.17;100.00
10852;BME280;5479;52.046;6.314;2023-03-04T10:28:15;102401.03;;;8.05;100.00
10852;BME280;5479;52.046;6.314;2023-03-04T10:30:47;102391.13;;;7.78;100.00
10852;BME280;5479;52.046;6.314;2023-03-04T10:33:19;102399.47;;;7.58;100.00
10852;BME280;5479;52.046;6.314;2023-03-04T10:35:51;102404.22;;;7.41;100.00
10852;BME280;5479;52.046;6.314;2023-03-04T10:38:20;102404.63;;;7.21;100.00
10852;BME280;5479;52.046;6.314;2023-03-04T10:40:50;102405.47;;;7.23;100.00
10852;BME280;5479;52.046;6.314;2023-03-04T10:43:20;102403.03;;;7.13;100.00
10852;BME280;5479;52.046;6.314;2023-03-04T10:45:54;102406.50;;;7.16;100.00
10852;BME280;5479;52.046;6.314;2023-03-04T10:48:25;102392.94;;;7.35;100.00
10852;BME280;5479;52.046;6.314;2023-03-04T10:50:54;102397.38;;;7.33;100.00
10852;BME280;5479;52.046;6.314;2023-03-04T10:53:40;102394.47;;;7.45;100.00
10852;BME280;5479;52.046;6.314;2023-03-04T10:56:37;102386.78;;;7.75;100.00
10852;BME280;5479;52.046;6.314;2023-03-04T10:59:38;102389.41;;;8.51;100.00
10852;BME280;5479;52.046;6.314;2023-03-04T11:02:16;102380.84;;;8.73;100.00
10852;BME280;5479;52.046;6.314;2023-03-04T11:04:49;102386.56;;;8.58;100.00
10852;BME280;5479;52.046;6.314;2023-03-04T11:07:20;102385.97;;;8.47;100.00
10852;BME280;5479;52.046;6.314;2023-03-04T11:09:47;102377.03;;;8.85;100.00
10852;BME280;5479;52.046;6.314;2023-03-04T11:12:19;102381.09;;;8.64;100.00
10852;BME280;5479;52.046;6.314;2023-03-04T11:14:49;102375.34;;;8.48;100.00
10852;BME280;5479;52.046;6.314;2023-03-04T11:17:21;102368.97;;;8.57;100.00
10852;BME280;5479;52.046;6.314;2023-03-04T11:19:54;102363.81;;;8.53;100.00
10852;BME280;5479;52.046;6.314;2023-03-04T11:22:25;102363.22;;;8.41;100.00
10852;BME280;5479;52.046;6.314;2023-03-04T11:24:58;102372.03;;;8.05;100.00
10852;BME280;5479;52.046;6.314;2023-03-04T11:27:35;102374.56;;;8.08;100.00
10852;BME280;5479;52.046;6.314;2023-03-04T11:30:19;102364.94;;;8.06;100.00
10852;BME280;5479;52.046;6.314;2023-03-04T11:32:55;102365.19;;;7.97;100.00
10852;BME280;5479;52.046;6.314;2023-03-04T11:35:32;102357.69;;;8.15;100.00
10852;BME280;5479;52.046;6.314;2023-03-04T11:38:07;102355.59;;;8.29;100.00
10852;BME280;5479;52.046;6.314;2023-03-04T11:40:43;102352.44;;;8.51;100.00
10852;BME280;5479;52.046;6.314;2023-03-04T11:43:16;102361.31;;;8.46;100.00
10852;BME280;5479;52.046;6.314;2023-03-04T11:46:05;102353.72;;;8.68;100.00
10852;BME280;5479;52.046;6.314;2023-03-04T11:48:45;102347.81;;;8.59;100.00
10852;BME280;5479;52.046;6.314;2023-03-04T11:51:20;102342.78;;;8.82;100.00
10852;BME280;5479;52.046;6.314;2023-03-04T11:53:58;102338.88;;;8.95;100.00
10852;BME280;5479;52.046;6.314;2023-03-04T11:56:32;102339.81;;;9.23;100.00
10852;BME280;5479;52.046;6.314;2023-03-04T11:59:20;102339.06;;;9.20;100.00
10852;BME280;5479;52.046;6.314;2023-03-04T12:01:59;102336.00;;;8.72;100.00
10852;BME280;5479;52.046;6.314;2023-03-04T12:04:43;102337.25;;;8.59;100.00
10852;BME280;5479;52.046;6.314;2023-03-04T12:10:24;102335.97;;;8.04;100.00
10852;BME280;5479;52.046;6.314;2023-03-04T12:13:13;102334.28;;;7.65;100.00
10852;BME280;5479;52.046;6.314;2023-03-04T12:15:54;102334.75;;;7.82;100.00
10852;BME280;5479;52.046;6.314;2023-03-04T12:18:37;102330.56;;;7.73;100.00
10852;BME280;5479;52.046;6.314;2023-03-04T12:21:16;102329.91;;;7.64;100.00
10852;BME280;5479;52.046;6.314;2023-03-04T12:26:56;102330.31;;;7.46;100.00
10852;BME280;5479;52.046;6.314;2023-03-04T12:29:33;102330.31;;;7.46;100.00
10852;BME280;5479;52.046;6.314;2023-03-04T12:32:13;102335.53;;;7.49;100.00
10852;BME280;5479;52.046;6.314;2023-03-04T12:34:54;102342.81;;;7.36;100.00
10852;BME280;5479;52.046;6.314;2023-03-04T12:37:44;102329.75;;;7.32;100.00
10852;BME280;5479;52.046;6.314;2023-03-04T12:40:29;102318.84;;;7.48;100.00
10852;BME280;5479;52.046;6.314;2023-03-04T12:43:07;102323.88;;;7.59;100.00
10852;BME280;5479;52.046;6.314;2023-03-04T12:45:43;102325.41;;;7.69;100.00
10852;BME280;5479;52.046;6.314;2023-03-04T12:48:25;102309.66;;;8.01;100.00
10852;BME280;5479;52.046;6.314;2023-03-04T12:51:03;102322.69;;;7.72;100.00
10852;BME280;5479;52.046;6.314;2023-03-04T12:53:38;102328.16;;;7.63;100.00
10852;BME280;5479;52.046;6.314;2023-03-04T12:56:20;102327.06;;;7.35;100.00
10852;BME280;5479;52.046;6.314;2023-03-04T12:58:48;102318.91;;;7.05;100.00
10852;BME280;5479;52.046;6.314;2023-03-04T13:01:22;102310.91;;;7.10;100.00
10852;BME280;5479;52.046;6.314;2023-03-04T13:03:57;102309.97;;;7.12;100.00
10852;BME280;5479;52.046;6.314;2023-03-04T13:06:34;102307.03;;;7.26;100.00
10852;BME280;5479;52.046;6.314;2023-03-04T13:09:13;102307.06;;;7.64;100.00
10852;BME280;5479;52.046;6.314;2023-03-04T13:11:53;102304.88;;;7.81;100.00
10852;BME280;5479;52.046;6.314;2023-03-04T13:14:28;102294.63;;;8.05;100.00
10852;BME280;5479;52.046;6.314;2023-03-04T13:16:58;102282.97;;;8.13;100.00
10852;BME280;5479;52.046;6.314;2023-03-04T13:19:50;102281.84;;;7.88;100.00
10852;BME280;5479;52.046;6.314;2023-03-04T13:22:31;102283.69;;;7.84;100.00
10852;BME280;5479;52.046;6.314;2023-03-04T13:28:22;102289.53;;;8.32;100.00